Le Ponant — FGZZ — position and weather

sailwx.info

Track history (hours):
 
Tides and Currents Weather Stations Pressure Air Temp Water Temp Dewpoint Dewpoint Depression Visibility Wind Speed Wind Dir Waves Ship Positions

Le Ponant

Operator: Compangy des Iles du Ponant

Last reported at 2017-May-28 12:00 UTC. Time now 2017-May-28 12:24 UTC.
Position N 39°12' E 009°07'.

Length 84 m; draft 4.2 m.

Type: Passenger vessel. MMSI: 227186000.

Date/timePositionNaut miles runAvg speedWind from/ knotsBaromVisibWave heightAir tempDewpointWater temp
2017-May-28 12:00N 39°12' E 009°07'0 0.0
2017-May-28 11:30N 39°12' E 009°07'0 0.0
2017-May-28 11:00N 39°12' E 009°07'0 0.0
2017-May-28 10:30N 39°12' E 009°07'0 0.0
2017-May-28 09:59N 39°12' E 009°07'0 0.0
2017-May-28 09:27N 39°12' E 009°07'0 0.0
2017-May-28 08:58N 39°12' E 009°07'0 0.0
2017-May-28 08:28N 39°12' E 009°07'0 0.0
2017-May-28 08:00N 39°12' E 009°07'0 0.0
2017-May-28 07:30N 39°12' E 009°07'0 0.0
2017-May-28 07:00N 39°12' E 009°07'0 0.0
2017-May-28 06:30N 39°12' E 009°07'0 0.0
2017-May-28 05:59N 39°12' E 009°07'0 0.0
2017-May-28 05:29N 39°12' E 009°07'0 0.0
2017-May-28 04:59N 39°12' E 009°07'0 0.0
2017-May-28 04:29N 39°12' E 009°07'0 0.0
2017-May-28 03:53N 39°12' E 009°07'0 0.0
2017-May-28 03:29N 39°12' E 009°07'0 0.0
2017-May-28 02:59N 39°12' E 009°07'0 0.0
2017-May-28 02:29N 39°12' E 009°07'0 0.0
2017-May-28 01:59N 39°12' E 009°07'0 0.0
2017-May-28 01:29N 39°12' E 009°07'0 0.0
2017-May-28 00:59N 39°12' E 009°07'0 0.0
2017-May-28 00:29N 39°12' E 009°07'0 0.0
2017-May-27 23:59N 39°12' E 009°07'0 0.0
2017-May-27 23:29N 39°12' E 009°07'0 0.0
2017-May-27 22:59N 39°12' E 009°07'0 0.0
2017-May-27 22:29N 39°12' E 009°07'0 0.0
2017-May-27 21:59N 39°12' E 009°07'0 0.0
2017-May-27 21:29N 39°12' E 009°07'0 0.0
2017-May-27 20:59N 39°12' E 009°07'0 0.0
2017-May-27 20:29N 39°12' E 009°07'0 0.0
2017-May-27 19:59N 39°12' E 009°07'0 0.0
2017-May-27 19:29N 39°12' E 009°07'0 0.0
2017-May-27 18:59N 39°12' E 009°07'0 0.0
2017-May-27 18:29N 39°12' E 009°07'0 0.0
2017-May-27 17:59N 39°12' E 009°07'0 0.0
2017-May-27 17:29N 39°12' E 009°07'0 0.0
2017-May-27 16:59N 39°12' E 009°07'0 0.0
2017-May-27 16:29N 39°12' E 009°07'0 0.0
2017-May-27 15:59N 39°12' E 009°07'0 0.0
2017-May-27 15:29N 39°12' E 009°07'0 0.0
2017-May-27 14:59N 39°12' E 009°07'0 0.0
2017-May-27 14:29N 39°12' E 009°07'0 0.0
2017-May-27 13:29N 39°12' E 009°07'0 0.0
2017-May-27 12:59N 39°12' E 009°07'0 0.0
2017-May-27 12:29N 39°12' E 009°07'0 0.0
2017-May-27 12:00N 39°12' E 009°07'1 2.1
2017-May-27 11:30N 39°11' E 009°07'5 9.3
2017-May-27 10:59N 39°08' E 009°11'610.0
2017-May-27 10:25N 39°04' E 009°16'4 9.6
2017-May-27 09:58N 39°01' E 009°19'5 9.6
2017-May-27 09:25N 38°58' E 009°25'4 9.8
2017-May-27 09:00N 38°56' E 009°30'510.0
2017-May-27 08:30N 38°53' E 009°35'610.0
2017-May-27 07:53N 38°50' E 009°42'410.2
2017-May-27 07:30N 38°47' E 009°46'216 7.6
2017-May-26 03:15N 37°04' E 013°46'2 9.4
2017-May-26 03:00N 37°02' E 013°49'5 9.3
2017-May-26 02:30N 36°60' E 013°54'5 9.1
2017-May-26 02:00N 36°58' E 013°59'4 8.9
2017-May-26 01:30N 36°55' E 014°03'4 9.0
2017-May-26 01:00N 36°53' E 014°08'5 9.2
2017-May-26 00:30N 36°51' E 014°13'5 9.2
2017-May-26 00:00N 36°48' E 014°18'5 9.2
2017-May-25 23:30N 36°46' E 014°23'6 8.9
2017-May-25 22:48N 36°43' E 014°29'3 9.1
2017-May-25 22:29N 36°42' E 014°33'13 9.6
2017-May-25 21:05N 36°38' E 014°49'13 9.8
2017-May-25 19:44N 36°36' E 015°05'2 9.2
2017-May-25 19:30N 36°37' E 015°08'10 9.4
2017-May-25 18:27N 36°44' E 015°16'1110.2
2017-May-25 17:19N 36°54' E 015°23'7 8.8
2017-May-25 16:31N 37°01' E 015°24'25 1.8
2017-May-25 02:30N 37°27' E 015°25'5 8.3
2017-May-25 01:50N 37°32' E 015°27'4 8.0
2017-May-25 01:22N 37°36' E 015°28'6 6.6
2017-May-25 00:27N 37°42' E 015°29'4 8.5
2017-May-24 23:59N 37°46' E 015°29'4 8.5
2017-May-24 23:30N 37°50' E 015°29'4 8.4
2017-May-24 22:59N 37°54' E 015°30'4 8.4
2017-May-24 22:30N 37°58' E 015°32'4 8.6
2017-May-24 22:00N 38°02' E 015°33'4 8.5
2017-May-24 21:30N 38°06' E 015°34'5 9.5
2017-May-24 21:00N 38°11' E 015°35'611.7
2017-May-24 20:30N 38°16' E 015°40'5 9.9
2017-May-24 20:00N 38°20' E 015°37'510.6
2017-May-24 19:30N 38°22' E 015°31'510.8
2017-May-24 19:00N 38°23' E 015°24'511.1
2017-May-24 18:30N 38°24' E 015°17'510.8
2017-May-24 18:00N 38°25' E 015°10'510.6
2017-May-24 17:29N 38°26' E 015°03'5 9.4
2017-May-24 17:00N 38°28' E 014°58'0 0.4
2017-May-24 16:30N 38°28' E 014°58'0 0.1
2017-May-24 16:00N 38°28' E 014°58'0 0.0
2017-May-24 15:00N 38°28' E 014°58'0 0.0
2017-May-24 13:00N 38°28' E 014°58'0 0.0
2017-May-24 10:27N 38°28' E 014°58'0 0.0
2017-May-24 09:48N 38°28' E 014°58'0 0.0
2017-May-24 09:30N 38°28' E 014°58'0 0.0
2017-May-24 07:12N 38°28' E 014°58'0 0.0
2017-May-24 06:54N 38°28' E 014°58'0 0.0
2017-May-24 06:24N 38°28' E 014°58'6 3.6
2017-May-24 04:45N 38°28' E 015°05'4 8.4
2017-May-24 04:14N 38°28' E 015°11'2 8.6
2017-May-24 03:59N 38°28' E 015°13'5 8.8
2017-May-24 03:28N 38°27' E 015°19'2 4.8
2017-May-24 03:00N 38°30' E 015°19'4 7.1
2017-May-24 02:30N 38°33' E 015°17'3 6.2
2017-May-24 02:01N 38°36' E 015°15'3 6.1
2017-May-24 01:30N 38°39' E 015°14'3 6.0
2017-May-24 01:00N 38°41' E 015°12'3 4.9
2017-May-24 00:23N 38°43' E 015°15'2 5.8
2017-May-23 23:58N 38°46' E 015°16'3 6.1
2017-May-23 23:24N 38°49' E 015°18'6 4.7
2017-May-23 22:11N 38°53' E 015°13'7 1.1
2017-May-23 15:57N 38°47' E 015°12'1 1.1
2017-May-23 15:09N 38°46' E 015°11'0 1.4
2017-May-23 15:00N 38°46' E 015°11'1 1.9
2017-May-23 14:27N 38°45' E 015°12'6 6.2
2017-May-23 13:30N 38°40' E 015°09'5 9.6
2017-May-23 13:00N 38°36' E 015°06'5 9.6
2017-May-23 12:30N 38°32' E 015°02'5 9.0
2017-May-23 11:58N 38°28' E 014°58'0 1.1
2017-May-23 11:30N 38°28' E 014°58'0 0.0
2017-May-23 11:00N 38°28' E 014°58'0 0.0
2017-May-23 09:39N 38°28' E 014°58'1 0.3
2017-May-23 05:19N 38°29' E 014°59'310.0
2017-May-23 05:00N 38°32' E 014°60'610.5
2017-May-23 04:28N 38°37' E 014°59'7910.6
2017-May-22 21:03N 39°56' E 014°45'110.2
2017-May-22 20:59N 39°56' E 014°44'  
2017-May-18 23:43N 42°53' E 010°27'2 6.8
2017-May-18 23:29N 42°54' E 010°25'3 7.0
2017-May-18 23:00N 42°57' E 010°23'2 4.2
2017-May-18 22:30N 42°58' E 010°20'4 7.1
2017-May-18 22:00N 42°55' E 010°21'4 7.1
2017-May-18 21:30N 42°51' E 010°21'  
Track history (hours):
 
Tides and Currents Weather Stations Pressure Air Temp Water Temp Dewpoint Dewpoint Depression Visibility Wind Speed Wind Dir Waves Ship Positions

Le Ponant

Operator: Compangy des Iles du Ponant

Last reported at 2017-May-28 12:00 UTC. Time now 2017-May-28 12:24 UTC.
Position N 39°12' E 009°07'.

Length 84 m; draft 4.2 m.

Type: Passenger vessel. MMSI: 227186000.

Date/timePositionNaut miles runAvg speedWind from/ knotsBaromVisibWave heightAir tempDewpointWater temp
2017-May-28 12:00N 39°12' E 009°07'0 0.0
2017-May-28 11:30N 39°12' E 009°07'0 0.0
2017-May-28 11:00N 39°12' E 009°07'0 0.0
2017-May-28 10:30N 39°12' E 009°07'0 0.0
2017-May-28 09:59N 39°12' E 009°07'0 0.0
2017-May-28 09:27N 39°12' E 009°07'0 0.0
2017-May-28 08:58N 39°12' E 009°07'0 0.0
2017-May-28 08:28N 39°12' E 009°07'0 0.0
2017-May-28 08:00N 39°12' E 009°07'0 0.0
2017-May-28 07:30N 39°12' E 009°07'0 0.0
2017-May-28 07:00N 39°12' E 009°07'0 0.0
2017-May-28 06:30N 39°12' E 009°07'0 0.0
2017-May-28 05:59N 39°12' E 009°07'0 0.0
2017-May-28 05:29N 39°12' E 009°07'0 0.0
2017-May-28 04:59N 39°12' E 009°07'0 0.0
2017-May-28 04:29N 39°12' E 009°07'0 0.0
2017-May-28 03:53N 39°12' E 009°07'0 0.0
2017-May-28 03:29N 39°12' E 009°07'0 0.0
2017-May-28 02:59N 39°12' E 009°07'0 0.0
2017-May-28 02:29N 39°12' E 009°07'0 0.0
2017-May-28 01:59N 39°12' E 009°07'0 0.0
2017-May-28 01:29N 39°12' E 009°07'0 0.0
2017-May-28 00:59N 39°12' E 009°07'0 0.0
2017-May-28 00:29N 39°12' E 009°07'0 0.0
2017-May-27 23:59N 39°12' E 009°07'0 0.0
2017-May-27 23:29N 39°12' E 009°07'0 0.0
2017-May-27 22:59N 39°12' E 009°07'0 0.0
2017-May-27 22:29N 39°12' E 009°07'0 0.0
2017-May-27 21:59N 39°12' E 009°07'0 0.0
2017-May-27 21:29N 39°12' E 009°07'0 0.0
2017-May-27 20:59N 39°12' E 009°07'0 0.0
2017-May-27 20:29N 39°12' E 009°07'0 0.0
2017-May-27 19:59N 39°12' E 009°07'0 0.0
2017-May-27 19:29N 39°12' E 009°07'0 0.0
2017-May-27 18:59N 39°12' E 009°07'0 0.0
2017-May-27 18:29N 39°12' E 009°07'0 0.0
2017-May-27 17:59N 39°12' E 009°07'0 0.0
2017-May-27 17:29N 39°12' E 009°07'0 0.0
2017-May-27 16:59N 39°12' E 009°07'0 0.0
2017-May-27 16:29N 39°12' E 009°07'0 0.0
2017-May-27 15:59N 39°12' E 009°07'0 0.0
2017-May-27 15:29N 39°12' E 009°07'0 0.0
2017-May-27 14:59N 39°12' E 009°07'0 0.0
2017-May-27 14:29N 39°12' E 009°07'0 0.0
2017-May-27 13:29N 39°12' E 009°07'0 0.0
2017-May-27 12:59N 39°12' E 009°07'0 0.0
2017-May-27 12:29N 39°12' E 009°07'0 0.0
2017-May-27 12:00N 39°12' E 009°07'1 2.1
2017-May-27 11:30N 39°11' E 009°07'5 9.3
2017-May-27 10:59N 39°08' E 009°11'610.0
2017-May-27 10:25N 39°04' E 009°16'4 9.6
2017-May-27 09:58N 39°01' E 009°19'5 9.6
2017-May-27 09:25N 38°58' E 009°25'4 9.8
2017-May-27 09:00N 38°56' E 009°30'510.0
2017-May-27 08:30N 38°53' E 009°35'610.0
2017-May-27 07:53N 38°50' E 009°42'410.2
2017-May-27 07:30N 38°47' E 009°46'216 7.6
2017-May-26 03:15N 37°04' E 013°46'2 9.4
2017-May-26 03:00N 37°02' E 013°49'5 9.3
2017-May-26 02:30N 36°60' E 013°54'5 9.1
2017-May-26 02:00N 36°58' E 013°59'4 8.9
2017-May-26 01:30N 36°55' E 014°03'4 9.0
2017-May-26 01:00N 36°53' E 014°08'5 9.2
2017-May-26 00:30N 36°51' E 014°13'5 9.2
2017-May-26 00:00N 36°48' E 014°18'5 9.2
2017-May-25 23:30N 36°46' E 014°23'6 8.9
2017-May-25 22:48N 36°43' E 014°29'3 9.1
2017-May-25 22:29N 36°42' E 014°33'13 9.6
2017-May-25 21:05N 36°38' E 014°49'13 9.8
2017-May-25 19:44N 36°36' E 015°05'2 9.2
2017-May-25 19:30N 36°37' E 015°08'10 9.4
2017-May-25 18:27N 36°44' E 015°16'1110.2
2017-May-25 17:19N 36°54' E 015°23'7 8.8
2017-May-25 16:31N 37°01' E 015°24'25 1.8
2017-May-25 02:30N 37°27' E 015°25'5 8.3
2017-May-25 01:50N 37°32' E 015°27'4 8.0
2017-May-25 01:22N 37°36' E 015°28'6 6.6
2017-May-25 00:27N 37°42' E 015°29'4 8.5
2017-May-24 23:59N 37°46' E 015°29'4 8.5
2017-May-24 23:30N 37°50' E 015°29'4 8.4
2017-May-24 22:59N 37°54' E 015°30'4 8.4
2017-May-24 22:30N 37°58' E 015°32'4 8.6
2017-May-24 22:00N 38°02' E 015°33'4 8.5
2017-May-24 21:30N 38°06' E 015°34'5 9.5
2017-May-24 21:00N 38°11' E 015°35'611.7
2017-May-24 20:30N 38°16' E 015°40'5 9.9
2017-May-24 20:00N 38°20' E 015°37'510.6
2017-May-24 19:30N 38°22' E 015°31'510.8
2017-May-24 19:00N 38°23' E 015°24'511.1
2017-May-24 18:30N 38°24' E 015°17'510.8
2017-May-24 18:00N 38°25' E 015°10'510.6
2017-May-24 17:29N 38°26' E 015°03'5 9.4
2017-May-24 17:00N 38°28' E 014°58'0 0.4
2017-May-24 16:30N 38°28' E 014°58'0 0.1
2017-May-24 16:00N 38°28' E 014°58'0 0.0
2017-May-24 15:00N 38°28' E 014°58'0 0.0
2017-May-24 13:00N 38°28' E 014°58'0 0.0
2017-May-24 10:27N 38°28' E 014°58'0 0.0
2017-May-24 09:48N 38°28' E 014°58'0 0.0
2017-May-24 09:30N 38°28' E 014°58'0 0.0
2017-May-24 07:12N 38°28' E 014°58'0 0.0
2017-May-24 06:54N 38°28' E 014°58'0 0.0
2017-May-24 06:24N 38°28' E 014°58'6 3.6
2017-May-24 04:45N 38°28' E 015°05'4 8.4
2017-May-24 04:14N 38°28' E 015°11'2 8.6
2017-May-24 03:59N 38°28' E 015°13'5 8.8
2017-May-24 03:28N 38°27' E 015°19'2 4.8
2017-May-24 03:00N 38°30' E 015°19'4 7.1
2017-May-24 02:30N 38°33' E 015°17'3 6.2
2017-May-24 02:01N 38°36' E 015°15'3 6.1
2017-May-24 01:30N 38°39' E 015°14'3 6.0
2017-May-24 01:00N 38°41' E 015°12'3 4.9
2017-May-24 00:23N 38°43' E 015°15'2 5.8
2017-May-23 23:58N 38°46' E 015°16'3 6.1
2017-May-23 23:24N 38°49' E 015°18'6 4.7
2017-May-23 22:11N 38°53' E 015°13'7 1.1
2017-May-23 15:57N 38°47' E 015°12'1 1.1
2017-May-23 15:09N 38°46' E 015°11'0 1.4
2017-May-23 15:00N 38°46' E 015°11'1 1.9
2017-May-23 14:27N 38°45' E 015°12'6 6.2
2017-May-23 13:30N 38°40' E 015°09'5 9.6
2017-May-23 13:00N 38°36' E 015°06'5 9.6
2017-May-23 12:30N 38°32' E 015°02'5 9.0
2017-May-23 11:58N 38°28' E 014°58'0 1.1
2017-May-23 11:30N 38°28' E 014°58'0 0.0
2017-May-23 11:00N 38°28' E 014°58'0 0.0
2017-May-23 09:39N 38°28' E 014°58'1 0.3
2017-May-23 05:19N 38°29' E 014°59'310.0
2017-May-23 05:00N 38°32' E 014°60'610.5
2017-May-23 04:28N 38°37' E 014°59'7910.6
2017-May-22 21:03N 39°56' E 014°45'110.2
2017-May-22 20:59N 39°56' E 014°44'  
2017-May-18 23:43N 42°53' E 010°27'2 6.8
2017-May-18 23:29N 42°54' E 010°25'3 7.0
2017-May-18 23:00N 42°57' E 010°23'2 4.2
2017-May-18 22:30N 42°58' E 010°20'4 7.1
2017-May-18 22:00N 42°55' E 010°21'4 7.1
2017-May-18 21:30N 42°51' E 010°21'  

Dump ship's entire track history